sensor_id;sensor_type;location;lat;lon;timestamp;temperature;humidity
19952;DHT22;10137;49.406;19.484;2022-11-13T00:01:07;2.00;99.90
19952;DHT22;10137;49.406;19.484;2022-11-13T00:03:34;2.10;99.90
19952;DHT22;10137;49.406;19.484;2022-11-13T00:06:02;2.10;99.90
19952;DHT22;10137;49.406;19.484;2022-11-13T00:08:29;2.00;99.90
19952;DHT22;10137;49.406;19.484;2022-11-13T00:11:00;2.10;99.90
19952;DHT22;10137;49.406;19.484;2022-11-13T00:13:28;2.10;99.90
19952;DHT22;10137;49.406;19.484;2022-11-13T00:16:02;2.20;99.90
19952;DHT22;10137;49.406;19.484;2022-11-13T00:18:29;2.10;99.90
19952;DHT22;10137;49.406;19.484;2022-11-13T00:20:57;2.00;99.90
19952;DHT22;10137;49.406;19.484;2022-11-13T00:23:24;2.00;99.90
19952;DHT22;10137;49.406;19.484;2022-11-13T00:25:51;1.90;99.90
19952;DHT22;10137;49.406;19.484;2022-11-13T00:28:18;1.70;99.90
19952;DHT22;10137;49.406;19.484;2022-11-13T00:30:45;1.60;99.90
19952;DHT22;10137;49.406;19.484;2022-11-13T00:33:14;1.60;99.90
19952;DHT22;10137;49.406;19.484;2022-11-13T00:35:40;1.50;99.90
19952;DHT22;10137;49.406;19.484;2022-11-13T00:38:07;1.40;99.90
19952;DHT22;10137;49.406;19.484;2022-11-13T00:40:34;1.40;99.90
19952;DHT22;10137;49.406;19.484;2022-11-13T00:43:01;1.30;99.90
19952;DHT22;10137;49.406;19.484;2022-11-13T00:45:28;1.30;99.90
19952;DHT22;10137;49.406;19.484;2022-11-13T00:47:55;1.40;99.90
19952;DHT22;10137;49.406;19.484;2022-11-13T00:50:24;1.30;99.90
19952;DHT22;10137;49.406;19.484;2022-11-13T00:52:51;1.30;99.90
19952;DHT22;10137;49.406;19.484;2022-11-13T00:55:17;1.30;99.90
19952;DHT22;10137;49.406;19.484;2022-11-13T00:57:44;1.30;99.90
19952;DHT22;10137;49.406;19.484;2022-11-13T01:00:12;1.20;99.90
19952;DHT22;10137;49.406;19.484;2022-11-13T01:02:39;1.20;99.90
19952;DHT22;10137;49.406;19.484;2022-11-13T01:05:06;1.20;99.90
19952;DHT22;10137;49.406;19.484;2022-11-13T01:07:36;1.10;99.90
19952;DHT22;10137;49.406;19.484;2022-11-13T01:10:03;1.10;99.90
19952;DHT22;10137;49.406;19.484;2022-11-13T01:12:30;1.30;99.90
19952;DHT22;10137;49.406;19.484;2022-11-13T01:14:58;1.20;99.90
19952;DHT22;10137;49.406;19.484;2022-11-13T01:17:25;1.20;99.90
19952;DHT22;10137;49.406;19.484;2022-11-13T01:19:52;1.10;99.90
19952;DHT22;10137;49.406;19.484;2022-11-13T01:22:18;1.00;99.90
19952;DHT22;10137;49.406;19.484;2022-11-13T01:24:47;0.90;99.90
19952;DHT22;10137;49.406;19.484;2022-11-13T01:27:14;0.90;99.90
19952;DHT22;10137;49.406;19.484;2022-11-13T01:29:41;0.90;99.90
19952;DHT22;10137;49.406;19.484;2022-11-13T01:32:08;1.10;99.90
19952;DHT22;10137;49.406;19.484;2022-11-13T01:34:35;1.10;99.90
19952;DHT22;10137;49.406;19.484;2022-11-13T01:37:02;1.30;99.90
19952;DHT22;10137;49.406;19.484;2022-11-13T01:39:30;1.30;99.90
19952;DHT22;10137;49.406;19.484;2022-11-13T01:41:59;1.40;99.90
19952;DHT22;10137;49.406;19.484;2022-11-13T01:44:45;1.50;99.90
19952;DHT22;10137;49.406;19.484;2022-11-13T01:47:13;1.50;99.90
19952;DHT22;10137;49.406;19.484;2022-11-13T01:49:41;1.60;99.90
19952;DHT22;10137;49.406;19.484;2022-11-13T01:52:11;1.50;99.90
19952;DHT22;10137;49.406;19.484;2022-11-13T01:54:41;1.30;99.90
19952;DHT22;10137;49.406;19.484;2022-11-13T01:57:12;1.20;99.90
19952;DHT22;10137;49.406;19.484;2022-11-13T01:59:42;1.10;99.90
19952;DHT22;10137;49.406;19.484;2022-11-13T02:02:09;1.00;99.90
19952;DHT22;10137;49.406;19.484;2022-11-13T02:04:37;1.00;99.90
19952;DHT22;10137;49.406;19.484;2022-11-13T02:07:06;1.10;99.90
19952;DHT22;10137;49.406;19.484;2022-11-13T02:09:36;1.10;99.90
19952;DHT22;10137;49.406;19.484;2022-11-13T02:12:05;1.10;99.90
19952;DHT22;10137;49.406;19.484;2022-11-13T02:14:35;1.10;99.90
19952;DHT22;10137;49.406;19.484;2022-11-13T02:17:07;1.10;99.90
19952;DHT22;10137;49.406;19.484;2022-11-13T02:19:38;1.00;99.90
19952;DHT22;10137;49.406;19.484;2022-11-13T02:22:10;1.00;99.90
19952;DHT22;10137;49.406;19.484;2022-11-13T02:24:43;1.00;99.90
19952;DHT22;10137;49.406;19.484;2022-11-13T02:27:16;1.00;99.90
19952;DHT22;10137;49.406;19.484;2022-11-13T02:29:46;1.00;99.90
19952;DHT22;10137;49.406;19.484;2022-11-13T02:32:13;0.90;99.90
19952;DHT22;10137;49.406;19.484;2022-11-13T02:34:40;0.90;99.90
19952;DHT22;10137;49.406;19.484;2022-11-13T02:37:07;0.90;99.90
19952;DHT22;10137;49.406;19.484;2022-11-13T02:39:34;0.90;99.90
19952;DHT22;10137;49.406;19.484;2022-11-13T02:42:02;0.90;99.90
19952;DHT22;10137;49.406;19.484;2022-11-13T02:44:29;0.80;99.90
19952;DHT22;10137;49.406;19.484;2022-11-13T02:46:56;0.80;99.90
19952;DHT22;10137;49.406;19.484;2022-11-13T02:49:23;0.80;99.90
19952;DHT22;10137;49.406;19.484;2022-11-13T02:51:50;0.80;99.90
19952;DHT22;10137;49.406;19.484;2022-11-13T02:54:17;0.80;99.90
19952;DHT22;10137;49.406;19.484;2022-11-13T02:56:44;0.80;99.90
19952;DHT22;10137;49.406;19.484;2022-11-13T02:59:13;0.90;99.90
19952;DHT22;10137;49.406;19.484;2022-11-13T03:01:40;1.00;99.90
19952;DHT22;10137;49.406;19.484;2022-11-13T03:04:07;0.90;99.90
19952;DHT22;10137;49.406;19.484;2022-11-13T03:06:34;0.90;99.90
19952;DHT22;10137;49.406;19.484;2022-11-13T03:09:01;1.00;99.90
19952;DHT22;10137;49.406;19.484;2022-11-13T03:11:28;0.80;99.90
19952;DHT22;10137;49.406;19.484;2022-11-13T03:13:55;0.80;99.90
19952;DHT22;10137;49.406;19.484;2022-11-13T03:16:23;0.80;99.90
19952;DHT22;10137;49.406;19.484;2022-11-13T03:18:50;0.80;99.90
19952;DHT22;10137;49.406;19.484;2022-11-13T03:21:17;0.80;99.90
19952;DHT22;10137;49.406;19.484;2022-11-13T03:23:44;0.80;99.90
19952;DHT22;10137;49.406;19.484;2022-11-13T03:26:14;0.80;99.90
19952;DHT22;10137;49.406;19.484;2022-11-13T03:28:41;0.80;99.90
19952;DHT22;10137;49.406;19.484;2022-11-13T03:31:08;0.70;99.90
19952;DHT22;10137;49.406;19.484;2022-11-13T03:33:37;0.70;99.90
19952;DHT22;10137;49.406;19.484;2022-11-13T03:36:04;0.70;99.90
19952;DHT22;10137;49.406;19.484;2022-11-13T03:38:32;0.70;99.90
19952;DHT22;10137;49.406;19.484;2022-11-13T03:40:59;0.70;99.90
19952;DHT22;10137;49.406;19.484;2022-11-13T03:43:26;0.60;99.90
19952;DHT22;10137;49.406;19.484;2022-11-13T03:45:53;0.70;99.90
19952;DHT22;10137;49.406;19.484;2022-11-13T03:48:20;0.60;99.90
19952;DHT22;10137;49.406;19.484;2022-11-13T03:50:52;0.60;99.90
19952;DHT22;10137;49.406;19.484;2022-11-13T03:53:19;0.60;99.90
19952;DHT22;10137;49.406;19.484;2022-11-13T03:55:47;0.60;99.90
19952;DHT22;10137;49.406;19.484;2022-11-13T03:58:14;0.60;99.90
19952;DHT22;10137;49.406;19.484;2022-11-13T04:00:41;0.60;99.90
19952;DHT22;10137;49.406;19.484;2022-11-13T04:03:10;0.50;99.90
19952;DHT22;10137;49.406;19.484;2022-11-13T04:05:37;0.50;99.90
19952;DHT22;10137;49.406;19.484;2022-11-13T04:08:06;0.50;99.90
19952;DHT22;10137;49.406;19.484;2022-11-13T04:10:33;0.50;99.90
19952;DHT22;10137;49.406;19.484;2022-11-13T04:13:00;0.60;99.90
19952;DHT22;10137;49.406;19.484;2022-11-13T04:15:27;0.50;99.90
19952;DHT22;10137;49.406;19.484;2022-11-13T04:17:54;0.60;99.90
19952;DHT22;10137;49.406;19.484;2022-11-13T04:20:21;0.60;99.90
19952;DHT22;10137;49.406;19.484;2022-11-13T04:22:49;0.50;99.90
19952;DHT22;10137;49.406;19.484;2022-11-13T04:25:17;0.50;99.90
19952;DHT22;10137;49.406;19.484;2022-11-13T04:27:44;0.60;99.90
19952;DHT22;10137;49.406;19.484;2022-11-13T04:30:12;0.60;99.90
19952;DHT22;10137;49.406;19.484;2022-11-13T04:32:39;0.60;99.90
19952;DHT22;10137;49.406;19.484;2022-11-13T04:35:07;0.60;99.90
19952;DHT22;10137;49.406;19.484;2022-11-13T04:37:34;0.60;99.90
19952;DHT22;10137;49.406;19.484;2022-11-13T04:40:02;0.50;99.90
19952;DHT22;10137;49.406;19.484;2022-11-13T04:42:30;0.50;99.90
19952;DHT22;10137;49.406;19.484;2022-11-13T04:45:15;0.50;99.90
19952;DHT22;10137;49.406;19.484;2022-11-13T04:47:42;0.40;99.90
19952;DHT22;10137;49.406;19.484;2022-11-13T04:50:10;0.40;99.90
19952;DHT22;10137;49.406;19.484;2022-11-13T04:52:38;0.40;99.90
19952;DHT22;10137;49.406;19.484;2022-11-13T04:55:05;0.40;99.90
19952;DHT22;10137;49.406;19.484;2022-11-13T04:57:34;0.40;99.90
19952;DHT22;10137;49.406;19.484;2022-11-13T05:00:02;0.40;99.90
19952;DHT22;10137;49.406;19.484;2022-11-13T05:02:29;0.30;99.90
19952;DHT22;10137;49.406;19.484;2022-11-13T05:04:56;0.30;99.90
19952;DHT22;10137;49.406;19.484;2022-11-13T05:07:24;0.30;99.90
19952;DHT22;10137;49.406;19.484;2022-11-13T05:09:52;0.30;99.90
19952;DHT22;10137;49.406;19.484;2022-11-13T05:12:19;0.30;99.90
19952;DHT22;10137;49.406;19.484;2022-11-13T05:14:47;0.30;99.90
19952;DHT22;10137;49.406;19.484;2022-11-13T05:17:14;0.30;99.90
19952;DHT22;10137;49.406;19.484;2022-11-13T05:19:41;0.30;99.90
19952;DHT22;10137;49.406;19.484;2022-11-13T05:22:09;0.30;99.90
19952;DHT22;10137;49.406;19.484;2022-11-13T05:24:36;0.30;99.90
19952;DHT22;10137;49.406;19.484;2022-11-13T05:27:03;0.30;99.90
19952;DHT22;10137;49.406;19.484;2022-11-13T05:29:30;0.30;99.90
19952;DHT22;10137;49.406;19.484;2022-11-13T05:31:59;0.30;99.90
19952;DHT22;10137;49.406;19.484;2022-11-13T05:34:26;0.20;99.90
19952;DHT22;10137;49.406;19.484;2022-11-13T05:36:53;0.20;99.90
19952;DHT22;10137;49.406;19.484;2022-11-13T05:39:20;0.20;99.90
19952;DHT22;10137;49.406;19.484;2022-11-13T05:41:47;0.20;99.90
19952;DHT22;10137;49.406;19.484;2022-11-13T05:44:14;0.30;99.90
19952;DHT22;10137;49.406;19.484;2022-11-13T05:46:41;0.20;99.90
19952;DHT22;10137;49.406;19.484;2022-11-13T05:49:09;0.20;99.90
19952;DHT22;10137;49.406;19.484;2022-11-13T05:51:36;0.30;99.90
19952;DHT22;10137;49.406;19.484;2022-11-13T05:54:03;0.30;99.90
19952;DHT22;10137;49.406;19.484;2022-11-13T05:56:32;0.20;99.90
19952;DHT22;10137;49.406;19.484;2022-11-13T05:59:00;0.30;99.90
19952;DHT22;10137;49.406;19.484;2022-11-13T06:01:30;0.30;99.90
19952;DHT22;10137;49.406;19.484;2022-11-13T06:03:59;0.30;99.90
19952;DHT22;10137;49.406;19.484;2022-11-13T06:06:28;0.30;99.90
19952;DHT22;10137;49.406;19.484;2022-11-13T06:08:56;0.30;99.90
19952;DHT22;10137;49.406;19.484;2022-11-13T06:11:25;0.30;99.90
19952;DHT22;10137;49.406;19.484;2022-11-13T06:13:53;0.30;99.90
19952;DHT22;10137;49.406;19.484;2022-11-13T06:16:22;0.40;99.90
19952;DHT22;10137;49.406;19.484;2022-11-13T06:18:52;0.30;99.90
19952;DHT22;10137;49.406;19.484;2022-11-13T06:21:22;0.30;99.90
19952;DHT22;10137;49.406;19.484;2022-11-13T06:23:50;0.30;99.90
19952;DHT22;10137;49.406;19.484;2022-11-13T06:26:19;0.30;99.90
19952;DHT22;10137;49.406;19.484;2022-11-13T06:28:47;0.40;99.90
19952;DHT22;10137;49.406;19.484;2022-11-13T06:31:16;0.40;99.90
19952;DHT22;10137;49.406;19.484;2022-11-13T06:33:44;0.50;99.90
19952;DHT22;10137;49.406;19.484;2022-11-13T06:36:13;0.50;99.90
19952;DHT22;10137;49.406;19.484;2022-11-13T06:38:41;0.50;99.90
19952;DHT22;10137;49.406;19.484;2022-11-13T06:41:13;0.40;99.90
19952;DHT22;10137;49.406;19.484;2022-11-13T06:43:41;0.40;99.90
19952;DHT22;10137;49.406;19.484;2022-11-13T06:46:12;0.40;99.90
19952;DHT22;10137;49.406;19.484;2022-11-13T06:48:39;0.40;99.90
19952;DHT22;10137;49.406;19.484;2022-11-13T06:51:12;0.50;99.90
19952;DHT22;10137;49.406;19.484;2022-11-13T06:53:40;0.60;99.90
19952;DHT22;10137;49.406;19.484;2022-11-13T06:56:07;0.70;99.90
19952;DHT22;10137;49.406;19.484;2022-11-13T06:58:36;0.90;99.90
19952;DHT22;10137;49.406;19.484;2022-11-13T07:01:06;1.20;99.90
19952;DHT22;10137;49.406;19.484;2022-11-13T07:03:33;1.40;99.90
19952;DHT22;10137;49.406;19.484;2022-11-13T07:06:01;1.60;99.90
19952;DHT22;10137;49.406;19.484;2022-11-13T07:08:29;1.60;99.90
19952;DHT22;10137;49.406;19.484;2022-11-13T07:10:57;1.60;99.90
19952;DHT22;10137;49.406;19.484;2022-11-13T07:13:24;1.60;99.90
19952;DHT22;10137;49.406;19.484;2022-11-13T07:15:54;1.60;99.90
19952;DHT22;10137;49.406;19.484;2022-11-13T07:18:26;1.60;99.90
19952;DHT22;10137;49.406;19.484;2022-11-13T07:20:53;1.60;99.90
19952;DHT22;10137;49.406;19.484;2022-11-13T07:23:20;1.60;99.90
19952;DHT22;10137;49.406;19.484;2022-11-13T07:25:47;1.60;99.90
19952;DHT22;10137;49.406;19.484;2022-11-13T07:28:15;1.60;99.90
19952;DHT22;10137;49.406;19.484;2022-11-13T07:30:42;1.60;99.90
19952;DHT22;10137;49.406;19.484;2022-11-13T07:33:11;1.60;99.90
19952;DHT22;10137;49.406;19.484;2022-11-13T07:35:38;1.60;99.90
19952;DHT22;10137;49.406;19.484;2022-11-13T07:38:05;1.70;99.90
19952;DHT22;10137;49.406;19.484;2022-11-13T07:40:32;1.70;99.90
19952;DHT22;10137;49.406;19.484;2022-11-13T07:43:00;1.70;99.90
19952;DHT22;10137;49.406;19.484;2022-11-13T07:45:28;1.80;99.90
19952;DHT22;10137;49.406;19.484;2022-11-13T07:47:58;1.80;99.90
19952;DHT22;10137;49.406;19.484;2022-11-13T07:50:28;1.80;99.90
19952;DHT22;10137;49.406;19.484;2022-11-13T07:52:56;1.90;99.90
19952;DHT22;10137;49.406;19.484;2022-11-13T07:55:23;1.90;99.90
19952;DHT22;10137;49.406;19.484;2022-11-13T07:57:53;2.00;99.90
19952;DHT22;10137;49.406;19.484;2022-11-13T08:00:21;2.00;99.90
19952;DHT22;10137;49.406;19.484;2022-11-13T08:02:48;2.00;99.90
19952;DHT22;10137;49.406;19.484;2022-11-13T08:05:15;2.00;99.90
19952;DHT22;10137;49.406;19.484;2022-11-13T08:07:45;2.00;99.90
19952;DHT22;10137;49.406;19.484;2022-11-13T08:10:12;1.90;99.90
19952;DHT22;10137;49.406;19.484;2022-11-13T08:12:39;2.00;99.90
19952;DHT22;10137;49.406;19.484;2022-11-13T08:15:08;2.00;99.90
19952;DHT22;10137;49.406;19.484;2022-11-13T08:17:35;2.00;99.90
19952;DHT22;10137;49.406;19.484;2022-11-13T08:20:02;2.00;99.90
19952;DHT22;10137;49.406;19.484;2022-11-13T08:22:30;2.10;99.90
19952;DHT22;10137;49.406;19.484;2022-11-13T08:24:58;2.20;99.90
19952;DHT22;10137;49.406;19.484;2022-11-13T08:27:27;2.30;99.90
19952;DHT22;10137;49.406;19.484;2022-11-13T08:29:54;2.40;99.90
19952;DHT22;10137;49.406;19.484;2022-11-13T08:32:21;2.40;99.90
19952;DHT22;10137;49.406;19.484;2022-11-13T08:34:48;2.50;99.90
19952;DHT22;10137;49.406;19.484;2022-11-13T08:37:15;2.60;99.90
19952;DHT22;10137;49.406;19.484;2022-11-13T08:39:42;2.60;99.90
19952;DHT22;10137;49.406;19.484;2022-11-13T08:42:11;2.60;99.90
19952;DHT22;10137;49.406;19.484;2022-11-13T08:44:37;2.70;99.90
19952;DHT22;10137;49.406;19.484;2022-11-13T08:47:04;2.80;99.90
19952;DHT22;10137;49.406;19.484;2022-11-13T08:49:31;3.00;99.90
19952;DHT22;10137;49.406;19.484;2022-11-13T08:51:58;3.10;99.90
19952;DHT22;10137;49.406;19.484;2022-11-13T08:54:28;3.20;99.90
19952;DHT22;10137;49.406;19.484;2022-11-13T08:56:55;3.30;99.90
19952;DHT22;10137;49.406;19.484;2022-11-13T08:59:24;3.30;99.90
19952;DHT22;10137;49.406;19.484;2022-11-13T09:01:51;3.50;99.90
19952;DHT22;10137;49.406;19.484;2022-11-13T09:04:23;3.70;99.90
19952;DHT22;10137;49.406;19.484;2022-11-13T09:06:50;3.80;99.90
19952;DHT22;10137;49.406;19.484;2022-11-13T09:09:17;3.90;99.90
19952;DHT22;10137;49.406;19.484;2022-11-13T09:11:44;3.90;99.90
19952;DHT22;10137;49.406;19.484;2022-11-13T09:14:11;3.90;99.90
19952;DHT22;10137;49.406;19.484;2022-11-13T09:16:39;4.00;99.90
19952;DHT22;10137;49.406;19.484;2022-11-13T09:19:07;4.00;99.90
19952;DHT22;10137;49.406;19.484;2022-11-13T09:21:34;4.10;99.90
19952;DHT22;10137;49.406;19.484;2022-11-13T09:24:01;4.10;99.90
19952;DHT22;10137;49.406;19.484;2022-11-13T09:26:28;4.10;99.90
19952;DHT22;10137;49.406;19.484;2022-11-13T09:28:55;4.10;99.90
19952;DHT22;10137;49.406;19.484;2022-11-13T09:31:22;4.10;99.90
19952;DHT22;10137;49.406;19.484;2022-11-13T09:33:51;4.10;99.90
19952;DHT22;10137;49.406;19.484;2022-11-13T09:36:18;4.20;99.90
19952;DHT22;10137;49.406;19.484;2022-11-13T09:38:45;4.20;99.90
19952;DHT22;10137;49.406;19.484;2022-11-13T09:41:16;4.30;99.90
19952;DHT22;10137;49.406;19.484;2022-11-13T09:43:46;4.30;99.90
19952;DHT22;10137;49.406;19.484;2022-11-13T09:46:19;4.30;99.90
19952;DHT22;10137;49.406;19.484;2022-11-13T09:48:53;4.30;99.90
19952;DHT22;10137;49.406;19.484;2022-11-13T09:51:26;4.40;99.90
19952;DHT22;10137;49.406;19.484;2022-11-13T09:53:53;4.50;99.90
19952;DHT22;10137;49.406;19.484;2022-11-13T09:56:29;4.70;99.90
19952;DHT22;10137;49.406;19.484;2022-11-13T09:59:04;4.80;99.90
19952;DHT22;10137;49.406;19.484;2022-11-13T10:01:40;5.00;99.90
19952;DHT22;10137;49.406;19.484;2022-11-13T10:04:13;5.20;99.90
19952;DHT22;10137;49.406;19.484;2022-11-13T10:06:49;5.40;99.90
19952;DHT22;10137;49.406;19.484;2022-11-13T10:09:25;5.70;99.90
19952;DHT22;10137;49.406;19.484;2022-11-13T10:11:56;6.10;99.90
19952;DHT22;10137;49.406;19.484;2022-11-13T10:14:28;6.40;99.90
19952;DHT22;10137;49.406;19.484;2022-11-13T10:16:58;6.60;99.90
19952;DHT22;10137;49.406;19.484;2022-11-13T10:19:33;6.80;99.90
19952;DHT22;10137;49.406;19.484;2022-11-13T10:22:04;7.10;99.90
19952;DHT22;10137;49.406;19.484;2022-11-13T10:24:38;7.20;99.90
19952;DHT22;10137;49.406;19.484;2022-11-13T10:27:08;7.30;99.90
19952;DHT22;10137;49.406;19.484;2022-11-13T10:29:35;7.50;99.90
19952;DHT22;10137;49.406;19.484;2022-11-13T10:32:19;7.70;99.90
19952;DHT22;10137;49.406;19.484;2022-11-13T10:34:50;7.90;99.90
19952;DHT22;10137;49.406;19.484;2022-11-13T10:37:42;8.00;99.90
19952;DHT22;10137;49.406;19.484;2022-11-13T10:40:10;8.10;99.90
19952;DHT22;10137;49.406;19.484;2022-11-13T10:42:39;8.30;99.90
19952;DHT22;10137;49.406;19.484;2022-11-13T10:45:14;8.40;99.90
19952;DHT22;10137;49.406;19.484;2022-11-13T10:47:47;8.40;99.90
19952;DHT22;10137;49.406;19.484;2022-11-13T10:50:21;8.50;99.90
19952;DHT22;10137;49.406;19.484;2022-11-13T10:52:54;8.70;99.90
19952;DHT22;10137;49.406;19.484;2022-11-13T10:55:28;8.90;99.90
19952;DHT22;10137;49.406;19.484;2022-11-13T10:58:03;9.00;99.90
19952;DHT22;10137;49.406;19.484;2022-11-13T11:00:33;9.20;99.90
19952;DHT22;10137;49.406;19.484;2022-11-13T11:03:00;9.40;99.90
19952;DHT22;10137;49.406;19.484;2022-11-13T11:05:28;9.50;99.90
19952;DHT22;10137;49.406;19.484;2022-11-13T11:07:56;9.60;99.90
19952;DHT22;10137;49.406;19.484;2022-11-13T11:10:30;9.70;99.90
19952;DHT22;10137;49.406;19.484;2022-11-13T11:13:02;9.70;99.90
19952;DHT22;10137;49.406;19.484;2022-11-13T11:16:46;9.70;99.90
19952;DHT22;10137;49.406;19.484;2022-11-13T11:19:16;9.70;99.90
19952;DHT22;10137;49.406;19.484;2022-11-13T11:21:46;9.80;99.90
19952;DHT22;10137;49.406;19.484;2022-11-13T11:24:19;10.00;99.90
19952;DHT22;10137;49.406;19.484;2022-11-13T11:26:52;10.10;99.90
19952;DHT22;10137;49.406;19.484;2022-11-13T11:29:26;10.20;99.90
19952;DHT22;10137;49.406;19.484;2022-11-13T11:32:00;10.40;99.90
19952;DHT22;10137;49.406;19.484;2022-11-13T11:34:33;10.40;99.90
19952;DHT22;10137;49.406;19.484;2022-11-13T11:37:04;10.40;99.90
19952;DHT22;10137;49.406;19.484;2022-11-13T11:39:36;10.40;99.90
19952;DHT22;10137;49.406;19.484;2022-11-13T11:42:19;10.50;99.90
19952;DHT22;10137;49.406;19.484;2022-11-13T11:44:59;10.60;99.90
19952;DHT22;10137;49.406;19.484;2022-11-13T11:47:28;10.60;99.90
19952;DHT22;10137;49.406;19.484;2022-11-13T11:49:56;10.70;99.90
19952;DHT22;10137;49.406;19.484;2022-11-13T11:52:35;10.70;99.90
19952;DHT22;10137;49.406;19.484;2022-11-13T11:55:18;10.80;99.90
19952;DHT22;10137;49.406;19.484;2022-11-13T11:57:52;10.90;99.90
19952;DHT22;10137;49.406;19.484;2022-11-13T12:00:23;11.00;99.90
19952;DHT22;10137;49.406;19.484;2022-11-13T12:03:19;11.00;99.90
19952;DHT22;10137;49.406;19.484;2022-11-13T12:06:00;11.10;99.90
19952;DHT22;10137;49.406;19.484;2022-11-13T12:08:37;11.10;99.90
19952;DHT22;10137;49.406;19.484;2022-11-13T12:11:16;11.20;99.90
19952;DHT22;10137;49.406;19.484;2022-11-13T12:13:54;11.20;99.90
19952;DHT22;10137;49.406;19.484;2022-11-13T12:16:30;11.30;99.90
19952;DHT22;10137;49.406;19.484;2022-11-13T12:19:05;11.30;99.90
19952;DHT22;10137;49.406;19.484;2022-11-13T12:21:45;11.30;99.90
19952;DHT22;10137;49.406;19.484;2022-11-13T12:24:40;11.30;99.90
19952;DHT22;10137;49.406;19.484;2022-11-13T12:27:19;11.30;99.90
19952;DHT22;10137;49.406;19.484;2022-11-13T12:30:00;11.20;99.90
19952;DHT22;10137;49.406;19.484;2022-11-13T12:32:38;11.10;99.90
19952;DHT22;10137;49.406;19.484;2022-11-13T12:35:14;11.20;99.90
19952;DHT22;10137;49.406;19.484;2022-11-13T12:37:46;11.20;99.90
19952;DHT22;10137;49.406;19.484;2022-11-13T12:40:24;11.40;99.90
19952;DHT22;10137;49.406;19.484;2022-11-13T12:42:56;11.50;99.90
19952;DHT22;10137;49.406;19.484;2022-11-13T12:45:42;11.40;99.90
19952;DHT22;10137;49.406;19.484;2022-11-13T12:48:24;11.30;99.90
19952;DHT22;10137;49.406;19.484;2022-11-13T12:51:01;11.20;99.90
19952;DHT22;10137;49.406;19.484;2022-11-13T12:53:30;11.20;99.90
19952;DHT22;10137;49.406;19.484;2022-11-13T12:55:59;11.10;99.90
19952;DHT22;10137;49.406;19.484;2022-11-13T12:58:28;11.00;99.90
19952;DHT22;10137;49.406;19.484;2022-11-13T13:01:01;10.90;99.90
19952;DHT22;10137;49.406;19.484;2022-11-13T13:03:44;10.80;99.90
19952;DHT22;10137;49.406;19.484;2022-11-13T13:06:30;10.80;99.90
19952;DHT22;10137;49.406;19.484;2022-11-13T13:09:15;10.80;99.90
19952;DHT22;10137;49.406;19.484;2022-11-13T13:11:51;10.80;99.90
19952;DHT22;10137;49.406;19.484;2022-11-13T13:14:29;10.80;99.90
19952;DHT22;10137;49.406;19.484;2022-11-13T13:17:05;10.90;99.90
19952;DHT22;10137;49.406;19.484;2022-11-13T13:19:41;10.80;99.90
19952;DHT22;10137;49.406;19.484;2022-11-13T13:22:22;10.70;99.90
19952;DHT22;10137;49.406;19.484;2022-11-13T13:24:58;10.50;99.90
19952;DHT22;10137;49.406;19.484;2022-11-13T13:27:27;10.50;99.90
19952;DHT22;10137;49.406;19.484;2022-11-13T13:29:54;10.40;99.90
19952;DHT22;10137;49.406;19.484;2022-11-13T13:32:25;10.20;99.90
19952;DHT22;10137;49.406;19.484;2022-11-13T13:34:59;10.20;99.90
19952;DHT22;10137;49.406;19.484;2022-11-13T13:37:34;10.20;99.90
19952;DHT22;10137;49.406;19.484;2022-11-13T13:40:14;10.20;99.90
19952;DHT22;10137;49.406;19.484;2022-11-13T13:42:59;10.10;99.90
19952;DHT22;10137;49.406;19.484;2022-11-13T13:45:34;10.10;99.90
19952;DHT22;10137;49.406;19.484;2022-11-13T13:48:10;10.00;99.90
19952;DHT22;10137;49.406;19.484;2022-11-13T13:50:40;10.00;99.90
19952;DHT22;10137;49.406;19.484;2022-11-13T13:53:15;9.90;99.90
19952;DHT22;10137;49.406;19.484;2022-11-13T13:55:46;9.90;99.90
19952;DHT22;10137;49.406;19.484;2022-11-13T13:58:16;9.90;99.90
19952;DHT22;10137;49.406;19.484;2022-11-13T14:00:54;9.90;99.90
19952;DHT22;10137;49.406;19.484;2022-11-13T14:03:22;9.90;99.90
19952;DHT22;10137;49.406;19.484;2022-11-13T14:05:51;9.80;99.90
19952;DHT22;10137;49.406;19.484;2022-11-13T14:08:21;9.80;99.90
19952;DHT22;10137;49.406;19.484;2022-11-13T14:10:49;9.80;99.90
19952;DHT22;10137;49.406;19.484;2022-11-13T14:13:22;9.80;99.90
19952;DHT22;10137;49.406;19.484;2022-11-13T14:15:59;9.80;99.90
19952;DHT22;10137;49.406;19.484;2022-11-13T14:18:29;9.80;99.90
19952;DHT22;10137;49.406;19.484;2022-11-13T14:20:59;9.80;99.90
19952;DHT22;10137;49.406;19.484;2022-11-13T14:23:30;9.70;99.90
19952;DHT22;10137;49.406;19.484;2022-11-13T14:25:58;9.70;99.90
19952;DHT22;10137;49.406;19.484;2022-11-13T14:28:30;9.70;99.90
19952;DHT22;10137;49.406;19.484;2022-11-13T14:31:02;9.70;99.90
19952;DHT22;10137;49.406;19.484;2022-11-13T14:33:35;9.60;99.90
19952;DHT22;10137;49.406;19.484;2022-11-13T14:36:06;9.60;99.90
19952;DHT22;10137;49.406;19.484;2022-11-13T14:38:35;9.60;99.90
19952;DHT22;10137;49.406;19.484;2022-11-13T14:41:20;9.50;99.90
19952;DHT22;10137;49.406;19.484;2022-11-13T14:43:50;9.40;99.90
19952;DHT22;10137;49.406;19.484;2022-11-13T14:46:30;9.30;99.90
19952;DHT22;10137;49.406;19.484;2022-11-13T14:49:10;9.30;99.90
19952;DHT22;10137;49.406;19.484;2022-11-13T14:51:52;9.20;99.90
19952;DHT22;10137;49.406;19.484;2022-11-13T14:54:31;9.10;99.90
19952;DHT22;10137;49.406;19.484;2022-11-13T14:57:10;8.90;99.90
19952;DHT22;10137;49.406;19.484;2022-11-13T14:59:39;8.90;99.90
19952;DHT22;10137;49.406;19.484;2022-11-13T15:02:09;8.80;99.90
19952;DHT22;10137;49.406;19.484;2022-11-13T15:04:37;8.70;99.90
19952;DHT22;10137;49.406;19.484;2022-11-13T15:07:19;8.60;99.90
19952;DHT22;10137;49.406;19.484;2022-11-13T15:09:48;8.50;99.90
19952;DHT22;10137;49.406;19.484;2022-11-13T15:12:15;8.40;99.90
19952;DHT22;10137;49.406;19.484;2022-11-13T15:14:42;8.40;99.90
19952;DHT22;10137;49.406;19.484;2022-11-13T15:17:13;8.20;99.90
19952;DHT22;10137;49.406;19.484;2022-11-13T15:19:41;8.20;99.90
19952;DHT22;10137;49.406;19.484;2022-11-13T15:22:11;8.10;99.90
19952;DHT22;10137;49.406;19.484;2022-11-13T15:24:38;8.10;99.90
19952;DHT22;10137;49.406;19.484;2022-11-13T15:27:09;8.00;99.90
19952;DHT22;10137;49.406;19.484;2022-11-13T15:29:40;8.00;99.90
19952;DHT22;10137;49.406;19.484;2022-11-13T15:32:09;8.00;99.90
19952;DHT22;10137;49.406;19.484;2022-11-13T15:34:36;8.00;99.90
19952;DHT22;10137;49.406;19.484;2022-11-13T15:37:09;8.00;99.90
19952;DHT22;10137;49.406;19.484;2022-11-13T15:39:37;7.90;99.90
19952;DHT22;10137;49.406;19.484;2022-11-13T15:42:16;7.80;99.90
19952;DHT22;10137;49.406;19.484;2022-11-13T15:44:43;7.80;99.90
19952;DHT22;10137;49.406;19.484;2022-11-13T15:47:26;7.70;99.90